Time;durP1;ratioP1;P1;durP2;ratioP2;P2;SDS_P1;SDS_P2;PMS_P1;PMS_P2;Temp;Humidity;BMP_temperature;BMP_pressure;BME280_temperature;BME280_humidity;BME280_pressure;Samples;Min_cycle;Max_cycle;Signal;HPM_P1;HPM_P2
2023/01/12 00:01:49;;;;;;;66.13;42.13;;;7.10;99.90;;;;;;5096225;28;20219;-85
2023/01/12 00:04:15;;;;;;;62.03;41.53;;;7.10;99.90;;;;;;5096533;28;20180;-83
2023/01/12 00:06:41;;;;;;;60.17;42.28;;;7.10;99.90;;;;;;5102204;28;20180;-85
2023/01/12 00:09:08;;;;;;;59.80;43.03;;;7.00;99.90;;;;;;5095532;28;20677;-84
2023/01/12 00:11:38;;;;;;;69.00;42.10;;;6.90;99.90;;;;;;5095705;28;20173;-86
2023/01/12 00:14:05;;;;;;;61.65;41.58;;;6.90;99.90;;;;;;5094593;28;20203;-84
2023/01/12 00:16:34;;;;;;;65.22;40.88;;;6.80;99.90;;;;;;5094562;28;20600;-86
2023/01/12 00:19:21;;;;;;;62.95;41.80;;;6.80;99.90;;;;;;5094558;28;20204;-86
2023/01/12 00:21:57;;;;;;;69.80;42.10;;;6.80;99.90;;;;;;5093856;28;20220;-87
2023/01/12 00:24:24;;;;;;;68.30;40.47;;;6.80;99.90;;;;;;5096006;28;20175;-84
2023/01/12 00:26:51;;;;;;;62.63;40.42;;;6.80;99.90;;;;;;5095639;28;20579;-87
2023/01/12 00:29:18;;;;;;;58.83;39.30;;;6.80;99.90;;;;;;5095490;28;20176;-84
2023/01/12 00:31:44;;;;;;;72.65;44.78;;;6.80;99.90;;;;;;5094292;28;20260;-84
2023/01/12 00:34:10;;;;;;;63.75;42.60;;;6.90;99.90;;;;;;5094084;28;20295;-83
2023/01/12 00:36:36;;;;;;;74.72;45.83;;;7.00;99.90;;;;;;5094062;28;20177;-83
2023/01/12 00:39:02;;;;;;;67.10;41.77;;;7.10;99.90;;;;;;5095131;28;20282;-87
2023/01/12 00:46:56;;;;;;;67.95;41.65;;;7.10;99.90;;;;;;5095625;28;20214;-83
2023/01/12 00:49:22;;;;;;;67.80;43.83;;;7.20;99.90;;;;;;5097647;28;20184;-83
2023/01/12 00:51:47;;;;;;;62.83;42.10;;;7.30;99.90;;;;;;5096874;28;20192;-85
2023/01/12 00:54:13;;;;;;;64.57;43.57;;;7.20;99.90;;;;;;5097560;28;20192;-89
2023/01/12 00:56:39;;;;;;;64.00;41.90;;;7.20;99.90;;;;;;5095294;28;20259;-85
2023/01/12 00:59:05;;;;;;;63.33;39.28;;;7.20;99.90;;;;;;5095329;28;20203;-85
2023/01/12 01:01:33;;;;;;;62.27;39.70;;;7.20;99.90;;;;;;5094959;28;20585;-84
2023/01/12 01:03:59;;;;;;;65.40;39.15;;;7.20;99.90;;;;;;5094990;28;20440;-85
2023/01/12 01:06:25;;;;;;;64.85;39.95;;;7.20;99.90;;;;;;5094869;28;20184;-82
2023/01/12 01:08:51;;;;;;;61.80;38.60;;;7.20;99.90;;;;;;5093601;28;20605;-83
2023/01/12 01:11:17;;;;;;;52.90;36.87;;;7.20;99.90;;;;;;5093517;28;20184;-86
2023/01/12 01:13:44;;;;;;;59.22;38.38;;;7.20;99.90;;;;;;5094793;28;20601;-87
2023/01/12 01:16:13;;;;;;;54.53;36.92;;;7.20;99.90;;;;;;5094962;28;20169;-82
2023/01/12 01:18:40;;;;;;;56.72;37.28;;;7.20;99.90;;;;;;5093422;28;20629;-87
2023/01/12 01:21:11;;;;;;;62.40;38.72;;;7.20;99.90;;;;;;5093391;28;20627;-85
2023/01/12 01:23:38;;;;;;;58.63;37.92;;;7.20;99.90;;;;;;5094648;28;20196;-87
2023/01/12 01:26:05;;;;;;;58.80;39.78;;;7.10;99.90;;;;;;5093370;28;20176;-87
2023/01/12 01:28:31;;;;;;;58.95;37.00;;;7.10;99.90;;;;;;5094436;28;20221;-87
2023/01/12 01:31:24;;;;;;;61.33;38.47;;;7.10;99.90;;;;;;5094600;28;20177;-83
2023/01/12 01:33:50;;;;;;;58.10;36.97;;;7.10;99.90;;;;;;5090490;28;20559;-83
2023/01/12 01:36:17;;;;;;;58.92;38.47;;;7.10;99.90;;;;;;5094408;28;20190;-86
2023/01/12 01:38:45;;;;;;;54.55;34.47;;;7.00;99.90;;;;;;5095535;28;20192;-87
2023/01/12 01:41:23;;;;;;;57.85;36.08;;;7.00;99.90;;;;;;5094318;28;20855;-87
2023/01/12 01:43:53;;;;;;;51.55;32.60;;;7.00;99.90;;;;;;5094295;28;20680;-86
2023/01/12 01:46:31;;;;;;;48.15;31.88;;;7.00;99.90;;;;;;5094264;28;20181;-84
2023/01/12 01:49:22;;;;;;;44.10;30.50;;;7.10;99.90;;;;;;5093668;28;20193;-87
2023/01/12 01:51:48;;;;;;;49.10;32.03;;;7.10;99.90;;;;;;5062309;28;20193;-87
2023/01/12 01:54:14;;;;;;;54.55;33.22;;;7.10;99.90;;;;;;5094259;28;20192;-86
2023/01/12 01:56:40;;;;;;;50.70;32.28;;;7.10;99.90;;;;;;5092954;28;20224;-86
2023/01/12 01:59:14;;;;;;;45.22;32.10;;;7.20;99.90;;;;;;5094163;28;20649;-84
2023/01/12 02:01:40;;;;;;;52.90;32.60;;;7.20;99.90;;;;;;5092784;28;20685;-83
2023/01/12 02:04:07;;;;;;;49.85;32.83;;;7.10;99.90;;;;;;5092720;28;20703;-87
2023/01/12 02:06:33;;;;;;;55.88;33.05;;;7.10;99.90;;;;;;5093897;28;20172;-83
2023/01/12 02:09:06;;;;;;;57.72;37.42;;;7.10;99.90;;;;;;5092646;28;20208;-87
2023/01/12 02:17:21;;;;;;;53.45;37.33;;;7.10;99.90;;;;;;5094348;28;20176;-84
2023/01/12 02:20:07;;;;;;;62.40;38.85;;;7.10;99.90;;;;;;5092686;28;20180;-84
2023/01/12 02:22:38;;;;;;;56.03;37.65;;;7.10;99.90;;;;;;5093581;28;20215;-84
2023/01/12 02:25:07;;;;;;;56.70;37.92;;;7.00;99.90;;;;;;5092502;28;20176;-87
2023/01/12 02:28:08;;;;;;;54.65;37.08;;;7.10;99.90;;;;;;5093758;28;20530;-87
2023/01/12 02:30:58;;;;;;;60.38;37.55;;;7.10;99.90;;;;;;5093892;28;20198;-87
2023/01/12 02:33:45;;;;;;;57.58;35.45;;;7.00;99.90;;;;;;5092180;28;20234;-85
2023/01/12 02:36:39;;;;;;;55.35;36.38;;;7.00;99.90;;;;;;5093734;28;20180;-87
2023/01/12 02:39:28;;;;;;;55.55;35.92;;;7.00;99.90;;;;;;5092263;28;20253;-84
2023/01/12 02:42:40;;;;;;;57.92;36.22;;;7.00;99.90;;;;;;5093574;28;20614;-87
2023/01/12 02:45:33;;;;;;;60.78;35.75;;;7.00;99.90;;;;;;5093956;28;20230;-85
2023/01/12 02:48:20;;;;;;;57.25;34.92;;;6.90;99.90;;;;;;5093736;28;20202;-84
2023/01/12 02:51:07;;;;;;;50.20;34.25;;;6.90;99.90;;;;;;5092312;28;20176;-84
2023/01/12 02:53:44;;;;;;;55.78;36.78;;;6.70;99.90;;;;;;5093388;28;20207;-83
2023/01/12 02:56:15;;;;;;;60.08;39.38;;;6.70;99.90;;;;;;5094048;28;20231;-84
2023/01/12 02:58:47;;;;;;;58.75;37.20;;;6.90;99.90;;;;;;5093388;28;20195;-84
2023/01/12 03:01:15;;;;;;;63.80;38.85;;;6.90;99.90;;;;;;5093859;28;20257;-88
2023/01/12 03:03:41;;;;;;;58.20;37.20;;;6.80;99.90;;;;;;5097319;28;20596;-84
2023/01/12 03:06:07;;;;;;;56.15;36.45;;;6.80;99.90;;;;;;5096128;28;20185;-86
2023/01/12 03:08:37;;;;;;;58.35;36.55;;;6.70;99.90;;;;;;5095740;28;20200;-83
2023/01/12 03:11:05;;;;;;;63.28;40.42;;;6.70;99.90;;;;;;5097369;28;20321;-88
2023/01/12 03:13:34;;;;;;;76.80;42.55;;;6.70;99.90;;;;;;5096101;28;20289;-84
2023/01/12 03:16:02;;;;;;;61.03;39.72;;;6.80;99.90;;;;;;5095896;28;20176;-82
2023/01/12 03:18:57;;;;;;;62.47;39.30;;;6.80;99.90;;;;;;5097021;28;20199;-84
2023/01/12 03:21:22;;;;;;;66.93;43.03;;;6.70;99.90;;;;;;5094947;28;20297;-87
2023/01/12 03:23:54;;;;;;;59.33;39.83;;;6.80;99.90;;;;;;5095782;28;20193;-84
2023/01/12 03:26:24;;;;;;;54.00;37.33;;;6.80;99.90;;;;;;5098110;28;20249;-88
2023/01/12 03:28:55;;;;;;;59.78;37.35;;;6.80;99.90;;;;;;5097887;28;20288;-88
2023/01/12 03:31:22;;;;;;;56.53;36.85;;;6.80;99.90;;;;;;5096953;28;20177;-87
2023/01/12 03:33:48;;;;;;;57.30;38.85;;;6.80;99.90;;;;;;5096714;28;20672;-87
2023/01/12 03:36:29;;;;;;;59.30;38.90;;;6.70;99.90;;;;;;5096788;28;20205;-83
2023/01/12 03:39:01;;;;;;;63.15;39.15;;;6.60;99.90;;;;;;5096845;28;20200;-84
2023/01/12 03:41:50;;;;;;;59.78;39.83;;;6.50;99.90;;;;;;5096736;28;20200;-87
2023/01/12 03:44:38;;;;;;;60.50;38.55;;;6.40;99.90;;;;;;5097068;28;20234;-87
2023/01/12 03:47:13;;;;;;;54.42;36.53;;;6.30;99.90;;;;;;5095196;28;20184;-87
2023/01/12 03:49:49;;;;;;;56.78;35.47;;;6.20;99.90;;;;;;5095224;28;20172;-83
2023/01/12 03:52:16;;;;;;;56.58;36.15;;;6.20;99.90;;;;;;5096387;28;20196;-86
2023/01/12 03:54:43;;;;;;;59.25;35.58;;;6.20;99.90;;;;;;5096131;28;20221;-87
2023/01/12 03:57:11;;;;;;;50.60;34.13;;;6.20;99.90;;;;;;5096169;28;20242;-84
2023/01/12 03:59:37;;;;;;;57.45;37.30;;;6.20;99.90;;;;;;5096528;28;20172;-83
2023/01/12 04:02:03;;;;;;;68.35;45.80;;;6.30;99.90;;;;;;5094851;28;20749;-87
2023/01/12 04:04:28;;;;;;;60.10;37.23;;;6.30;99.90;;;;;;5094976;28;20184;-84
2023/01/12 04:06:57;;;;;;;56.40;38.10;;;6.30;99.90;;;;;;5094858;28;20409;-84
2023/01/12 04:09:24;;;;;;;54.67;35.55;;;6.40;99.90;;;;;;5096377;28;20638;-86
2023/01/12 04:12:09;;;;;;;57.50;38.00;;;6.50;99.90;;;;;;5095750;28;20169;-82
2023/01/12 04:14:35;;;;;;;57.00;36.42;;;6.50;99.90;;;;;;5096275;28;20587;-84
2023/01/12 04:17:01;;;;;;;53.88;35.97;;;6.40;99.90;;;;;;5096734;28;20173;-84
2023/01/12 04:19:29;;;;;;;59.00;38.90;;;6.30;99.90;;;;;;5096084;28;20176;-84
2023/01/12 04:24:39;;;;;;;58.63;37.00;;;6.40;99.90;;;;;;5096194;28;20190;-85
2023/01/12 04:27:05;;;;;;;57.20;39.77;;;6.50;99.90;;;;;;5095759;28;20263;-87
2023/01/12 04:29:30;;;;;;;62.23;39.97;;;6.40;99.90;;;;;;5095803;28;20758;-82
2023/01/12 04:31:56;;;;;;;55.80;37.97;;;6.40;99.90;;;;;;5094292;28;20181;-83
2023/01/12 04:34:22;;;;;;;65.73;40.37;;;6.50;99.90;;;;;;5094246;28;20180;-86
2023/01/12 04:36:48;;;;;;;56.83;38.15;;;6.60;99.90;;;;;;5095502;28;20198;-87
2023/01/12 04:39:14;;;;;;;55.80;36.13;;;6.60;99.90;;;;;;5094232;28;20208;-87
2023/01/12 04:41:39;;;;;;;58.23;39.07;;;6.50;99.90;;;;;;5094180;28;20465;-85
2023/01/12 04:44:05;;;;;;;61.43;38.93;;;6.60;99.90;;;;;;5094031;28;20196;-87
2023/01/12 04:46:31;;;;;;;54.70;36.00;;;6.70;99.90;;;;;;5095658;28;20408;-83
2023/01/12 04:48:57;;;;;;;59.70;38.80;;;6.70;99.90;;;;;;5094209;28;20838;-87
2023/01/12 04:51:23;;;;;;;58.03;36.97;;;6.80;99.90;;;;;;5097567;28;20731;-85
2023/01/12 04:53:50;;;;;;;56.95;36.50;;;6.80;99.90;;;;;;5115523;28;20202;-88
2023/01/12 04:56:16;;;;;;;55.38;38.00;;;6.80;99.90;;;;;;5115795;28;20276;-84
2023/01/12 04:58:42;;;;;;;61.67;40.67;;;6.90;99.90;;;;;;5114089;28;20609;-84
2023/01/12 05:01:14;;;;;;;68.43;39.83;;;6.90;99.90;;;;;;5114094;28;20208;-86
2023/01/12 05:03:40;;;;;;;83.22;45.33;;;7.00;99.90;;;;;;5115171;28;20443;-85
2023/01/12 05:06:06;;;;;;;104.13;50.85;;;7.00;99.90;;;;;;5114166;28;20178;-86
2023/01/12 05:11:16;;;;;;;58.55;39.05;;;6.90;99.90;;;;;;5115414;28;20171;-84
2023/01/12 05:13:42;;;;;;;61.30;39.55;;;6.80;99.90;;;;;;5113855;28;20204;-84
2023/01/12 05:16:14;;;;;;;57.93;37.43;;;6.80;99.90;;;;;;5115111;28;20225;-82
2023/01/12 05:18:40;;;;;;;57.35;38.17;;;6.80;99.90;;;;;;5115006;28;20432;-84
2023/01/12 05:21:06;;;;;;;62.90;35.92;;;6.80;99.90;;;;;;5114923;28;20625;-83
2023/01/12 05:23:32;;;;;;;59.10;36.70;;;6.80;99.90;;;;;;5113210;28;20283;-86
2023/01/12 05:26:02;;;;;;;56.53;35.63;;;6.80;99.90;;;;;;5114221;28;20421;-83
2023/01/12 05:28:28;;;;;;;58.67;36.63;;;6.90;99.90;;;;;;5114091;28;20191;-86
2023/01/12 05:30:54;;;;;;;61.72;37.20;;;7.00;99.90;;;;;;5114777;28;20172;-84
2023/01/12 05:33:20;;;;;;;63.70;40.40;;;7.10;99.90;;;;;;5114705;28;20282;-83
2023/01/12 05:35:46;;;;;;;60.90;37.10;;;7.10;99.90;;;;;;5109896;28;20215;-84
2023/01/12 05:38:12;;;;;;;56.37;36.43;;;7.10;99.90;;;;;;5103766;28;20195;-83
2023/01/12 05:40:38;;;;;;;52.88;37.10;;;7.20;99.90;;;;;;5111201;28;20714;-87
2023/01/12 05:45:47;;;;;;;59.55;37.50;;;7.30;99.90;;;;;;5114045;28;20179;-88
2023/01/12 05:48:13;;;;;;;52.90;36.93;;;7.40;99.90;;;;;;5111126;28;20188;-87
2023/01/12 05:50:39;;;;;;;58.53;37.53;;;7.40;99.90;;;;;;5113831;28;20198;-82
2023/01/12 05:53:04;;;;;;;62.53;38.30;;;7.40;99.90;;;;;;5110818;28;20629;-83
2023/01/12 05:55:30;;;;;;;60.10;37.63;;;7.50;99.90;;;;;;5109142;28;20595;-84
2023/01/12 05:57:58;;;;;;;52.42;35.20;;;7.50;99.90;;;;;;5108820;28;20553;-85
2023/01/12 06:00:24;;;;;;;49.67;32.92;;;7.50;99.90;;;;;;5110015;28;20176;-82
2023/01/12 06:02:49;;;;;;;45.43;30.70;;;7.50;99.90;;;;;;5110353;28;20207;-81
2023/01/12 06:05:15;;;;;;;54.30;34.93;;;7.60;99.90;;;;;;5110623;28;20176;-82
2023/01/12 06:07:41;;;;;;;65.40;36.97;;;7.70;99.90;;;;;;5109917;28;20294;-74
2023/01/12 06:10:08;;;;;;;57.15;34.72;;;7.80;99.90;;;;;;5110346;28;20176;-77
2023/01/12 06:15:17;;;;;;;53.20;35.17;;;7.90;99.90;;;;;;5113497;28;20244;-82
2023/01/12 06:17:43;;;;;;;49.43;32.53;;;7.80;99.90;;;;;;5113885;28;20195;-84
2023/01/12 06:20:15;;;;;;;51.97;33.93;;;7.80;99.90;;;;;;5112727;28;20179;-83
2023/01/12 06:22:42;;;;;;;61.85;34.25;;;7.90;99.90;;;;;;5112243;28;20228;-82
2023/01/12 06:25:09;;;;;;;59.70;36.47;;;7.80;99.90;;;;;;5111199;28;20172;-87
2023/01/12 06:27:37;;;;;;;54.63;34.80;;;7.60;99.90;;;;;;5108354;28;20202;-85
2023/01/12 06:30:07;;;;;;;53.67;32.45;;;7.50;99.90;;;;;;5108913;28;20168;-81
2023/01/12 06:32:33;;;;;;;58.58;37.45;;;7.40;99.90;;;;;;5110237;28;20248;-81
2023/01/12 06:34:59;;;;;;;65.78;40.15;;;7.30;99.90;;;;;;5093999;28;20175;-82
2023/01/12 06:37:26;;;;;;;53.37;36.60;;;7.20;99.90;;;;;;5102959;28;20210;-80
2023/01/12 06:39:52;;;;;;;58.95;39.00;;;7.00;99.90;;;;;;5094312;28;20438;-83
2023/01/12 06:42:27;;;;;;;54.87;36.40;;;6.90;99.90;;;;;;5108011;28;20227;-79
2023/01/12 06:44:53;;;;;;;56.45;36.45;;;6.80;99.90;;;;;;5108482;28;20210;-85
2023/01/12 06:47:18;;;;;;;58.00;38.67;;;6.90;99.90;;;;;;5095984;28;20260;-83
2023/01/12 06:49:44;;;;;;;58.60;36.97;;;7.10;99.90;;;;;;5101275;28;20591;-85
2023/01/12 06:52:10;;;;;;;56.17;37.53;;;7.20;99.90;;;;;;5101234;28;20269;-85
2023/01/12 06:54:35;;;;;;;58.17;34.87;;;7.10;99.90;;;;;;5112305;28;20669;-83
2023/01/12 06:57:01;;;;;;;54.53;34.87;;;6.90;99.90;;;;;;5115328;28;20184;-88
2023/01/12 06:59:27;;;;;;;46.90;34.40;;;6.80;99.90;;;;;;5099142;28;20234;-87
2023/01/12 07:01:52;;;;;;;66.20;39.80;;;6.70;99.90;;;;;;5096661;28;20224;-86
2023/01/12 07:04:18;;;;;;;84.60;50.10;;;6.70;99.90;;;;;;5113229;28;20492;-87
2023/01/12 07:06:44;;;;;;;117.37;70.60;;;6.60;99.90;;;;;;5109919;28;20269;-85
2023/01/12 07:09:10;;;;;;;56.13;39.03;;;6.50;99.90;;;;;;5117753;28;20678;-85
2023/01/12 07:11:35;;;;;;;49.90;35.03;;;6.60;99.90;;;;;;5117165;28;20438;-87
2023/01/12 07:14:01;;;;;;;54.63;34.13;;;6.60;99.90;;;;;;5111588;28;20651;-89
2023/01/12 07:16:26;;;;;;;49.57;35.47;;;6.60;99.90;;;;;;5102177;28;20184;-87
2023/01/12 07:18:52;;;;;;;52.97;38.93;;;6.70;99.90;;;;;;5104116;28;20210;-87
2023/01/12 07:21:18;;;;;;;45.53;31.30;;;6.70;99.90;;;;;;5110641;28;20565;-85
2023/01/12 07:23:44;;;;;;;51.92;32.38;;;6.70;99.90;;;;;;5100203;28;20243;-87
2023/01/12 07:26:11;;;;;;;48.17;35.03;;;6.80;99.90;;;;;;5114917;28;20242;-86
2023/01/12 07:28:37;;;;;;;58.03;36.17;;;6.80;99.90;;;;;;5111584;28;20680;-85
2023/01/12 07:31:04;;;;;;;51.28;34.60;;;6.90;99.90;;;;;;5102044;28;20184;-87
2023/01/12 07:33:30;;;;;;;50.58;33.50;;;7.00;99.90;;;;;;5102414;28;20208;-88
2023/01/12 07:35:58;;;;;;;49.00;34.50;;;7.10;99.90;;;;;;5094376;28;20180;-86
2023/01/12 07:38:25;;;;;;;54.65;36.17;;;7.20;99.90;;;;;;5105217;28;20206;-88
2023/01/12 07:40:51;;;;;;;56.30;37.45;;;7.30;99.90;;;;;;5101329;28;20241;-88
2023/01/12 07:43:17;;;;;;;55.00;39.30;;;7.40;99.90;;;;;;5111428;28;20211;-86
2023/01/12 07:45:44;;;;;;;54.20;37.28;;;7.40;99.90;;;;;;5109153;28;20196;-85
2023/01/12 07:48:10;;;;;;;52.10;34.35;;;7.40;99.90;;;;;;5113657;28;20577;-85
2023/01/12 07:50:36;;;;;;;64.22;42.35;;;7.50;99.90;;;;;;5103094;28;20234;-85
2023/01/12 07:53:03;;;;;;;69.20;42.83;;;7.50;99.90;;;;;;5108377;28;20403;-89
2023/01/12 07:55:30;;;;;;;66.40;41.00;;;7.50;99.90;;;;;;5102479;27;20539;-88
2023/01/12 07:57:58;;;;;;;78.18;47.97;;;7.60;99.90;;;;;;5117429;27;20721;-88
2023/01/12 08:00:25;;;;;;;67.25;38.63;;;7.50;99.90;;;;;;5100392;28;20251;-90
2023/01/12 08:02:53;;;;;;;76.32;46.63;;;7.50;99.90;;;;;;5115339;28;20306;-85
2023/01/12 08:05:20;;;;;;;86.07;48.90;;;7.50;99.90;;;;;;5102020;28;20248;-89
2023/01/12 08:07:47;;;;;;;58.05;37.17;;;7.50;99.90;;;;;;5114108;27;20677;-87
2023/01/12 08:10:14;;;;;;;41.47;29.00;;;7.50;99.90;;;;;;5090199;28;20219;-90
2023/01/12 08:12:41;;;;;;;47.80;29.83;;;7.40;99.90;;;;;;5108382;28;20546;-86
2023/01/12 08:15:08;;;;;;;49.53;29.50;;;7.40;99.90;;;;;;5095361;28;20180;-88
2023/01/12 08:17:39;;;;;;;47.15;30.90;;;7.50;99.90;;;;;;5109201;27;20204;-85
2023/01/12 08:20:14;;;;;;;42.67;28.20;;;7.90;99.90;;;;;;5101185;27;20498;-89
2023/01/12 08:22:45;;;;;;;37.10;25.60;;;8.30;99.90;;;;;;5110027;27;20215;-87
2023/01/12 08:25:29;;;;;;;35.67;23.35;;;9.20;99.90;;;;;;5099549;28;20185;-90
2023/01/12 08:27:59;;;;;;;34.70;21.63;;;10.50;99.90;;;;;;5096517;28;20677;-88
2023/01/12 08:30:25;;;;;;;29.25;20.90;;;11.60;99.90;;;;;;5096244;28;20223;-89
2023/01/12 08:32:51;;;;;;;29.10;21.45;;;12.20;99.90;;;;;;5110733;28;20206;-89
2023/01/12 08:35:20;;;;;;;24.60;18.87;;;12.30;99.90;;;;;;5107314;28;20177;-89
2023/01/12 08:37:45;;;;;;;24.55;18.40;;;12.20;99.90;;;;;;5099552;28;20199;-89
2023/01/12 08:40:12;;;;;;;19.03;14.93;;;12.30;99.90;;;;;;5098451;28;20232;-85
2023/01/12 08:42:38;;;;;;;26.25;17.38;;;12.80;99.90;;;;;;5102262;28;20745;-88
2023/01/12 08:45:06;;;;;;;18.90;14.90;;;13.30;99.90;;;;;;5104648;28;20222;-89
2023/01/12 08:47:32;;;;;;;15.70;13.00;;;13.70;99.90;;;;;;5101819;27;20298;-88
2023/01/12 08:49:59;;;;;;;18.47;12.70;;;13.90;99.90;;;;;;5103043;28;20441;-88
2023/01/12 08:52:30;;;;;;;19.83;12.63;;;14.00;99.90;;;;;;5095761;28;20457;-89
2023/01/12 08:54:56;;;;;;;15.77;12.23;;;14.20;99.90;;;;;;5102224;28;20480;-89
2023/01/12 08:57:21;;;;;;;15.40;11.83;;;14.50;99.90;;;;;;5110622;28;20485;-85
2023/01/12 08:59:47;;;;;;;19.40;13.50;;;14.50;99.90;;;;;;5105684;28;20188;-88
2023/01/12 09:02:14;;;;;;;17.40;11.80;;;14.40;99.90;;;;;;5100821;28;20227;-88
2023/01/12 09:04:40;;;;;;;15.07;9.97;;;14.50;99.90;;;;;;5100219;27;20191;-88
2023/01/12 09:07:08;;;;;;;11.80;10.00;;;14.50;99.90;;;;;;5107959;28;20440;-89
2023/01/12 09:09:34;;;;;;;14.00;9.70;;;14.20;99.90;;;;;;5112294;28;20420;-89
2023/01/12 09:12:00;;;;;;;12.33;9.60;;;13.70;99.90;;;;;;5104442;28;20451;-87
2023/01/12 09:14:25;;;;;;;10.43;9.30;;;13.20;99.90;;;;;;5101640;28;20268;-89
2023/01/12 09:16:51;;;;;;;16.23;10.50;;;12.80;99.90;;;;;;5105068;28;20192;-85
2023/01/12 09:19:17;;;;;;;14.90;11.27;;;12.50;99.90;;;;;;5095898;28;20233;-85
2023/01/12 09:21:43;;;;;;;15.67;12.43;;;12.10;99.90;;;;;;5102273;28;20468;-84
2023/01/12 09:24:13;;;;;;;16.47;11.20;;;11.80;99.90;;;;;;5093433;28;20196;-84
2023/01/12 09:26:41;;;;;;;17.73;11.90;;;11.70;99.90;;;;;;5102382;27;20926;-85
2023/01/12 09:29:07;;;;;;;16.80;11.67;;;11.40;99.90;;;;;;5101553;27;20456;-85
2023/01/12 09:31:35;;;;;;;16.90;12.10;;;11.10;99.90;;;;;;5096739;28;20468;-84
2023/01/12 09:34:01;;;;;;;16.10;12.35;;;10.90;99.90;;;;;;5102122;28;20200;-89
2023/01/12 09:36:35;;;;;;;13.90;11.07;;;10.90;99.90;;;;;;5094276;28;20665;-84
2023/01/12 09:39:02;;;;;;;13.80;10.32;;;10.90;99.90;;;;;;5103823;27;20448;-89
2023/01/12 09:47:16;;;;;;;15.18;10.15;;;10.70;99.90;;;;;;5091959;28;20705;-84
2023/01/12 09:49:46;;;;;;;11.23;8.57;;;10.50;99.90;;;;;;5098194;28;20598;-89
2023/01/12 09:52:17;;;;;;;17.08;11.35;;;10.40;99.90;;;;;;5094039;28;20210;-85
2023/01/12 09:54:47;;;;;;;11.82;9.02;;;10.40;99.90;;;;;;5101799;28;20228;-86
2023/01/12 09:57:34;;;;;;;12.43;9.55;;;10.30;99.90;;;;;;5091749;28;20196;-88
2023/01/12 10:00:10;;;;;;;10.48;7.90;;;10.20;99.90;;;;;;5109077;28;20185;-89
2023/01/12 10:02:38;;;;;;;13.68;6.80;;;10.10;99.90;;;;;;5097208;28;20226;-85
2023/01/12 10:05:11;;;;;;;11.80;8.23;;;10.10;99.90;;;;;;5090112;28;20172;-89
2023/01/12 10:07:38;;;;;;;12.02;9.30;;;10.00;99.90;;;;;;5096128;28;20200;-89
2023/01/12 10:10:04;;;;;;;28.05;15.80;;;10.00;99.90;;;;;;5097280;28;20241;-89
2023/01/12 10:12:40;;;;;;;13.15;9.65;;;10.00;99.90;;;;;;5087896;28;20292;-88
2023/01/12 10:15:20;;;;;;;13.63;10.88;;;10.00;99.90;;;;;;5089829;28;20187;-85
2023/01/12 10:18:00;;;;;;;13.63;11.60;;;10.00;99.90;;;;;;5107208;28;20706;-89
2023/01/12 10:20:35;;;;;;;15.75;11.45;;;9.90;99.90;;;;;;5104937;28;20175;-85
2023/01/12 10:23:06;;;;;;;20.75;14.50;;;9.90;99.90;;;;;;5095578;28;20785;-85
2023/01/12 10:25:39;;;;;;;15.10;10.43;;;9.90;99.90;;;;;;5105395;28;20652;-85
2023/01/12 10:28:07;;;;;;;16.80;12.02;;;9.80;99.90;;;;;;5098510;28;20224;-89
2023/01/12 10:30:37;;;;;;;14.68;10.48;;;9.80;99.90;;;;;;5109800;28;20198;-89
2023/01/12 10:33:14;;;;;;;15.90;12.70;;;9.80;99.90;;;;;;5102639;28;20281;-89
2023/01/12 10:35:57;;;;;;;13.77;10.50;;;9.80;99.90;;;;;;5103040;28;20548;-85
2023/01/12 10:38:34;;;;;;;17.65;11.20;;;9.80;99.90;;;;;;5098522;28;20198;-85
2023/01/12 10:41:10;;;;;;;16.17;10.02;;;9.70;99.90;;;;;;5098769;28;20171;-85
2023/01/12 10:43:38;;;;;;;10.07;7.60;;;9.60;99.90;;;;;;5105541;28;20209;-85
2023/01/12 10:46:15;;;;;;;14.43;8.90;;;9.50;99.90;;;;;;5094941;28;20176;-85
2023/01/12 10:48:47;;;;;;;19.88;13.20;;;9.40;99.90;;;;;;5098614;28;20206;-89
2023/01/12 10:51:33;;;;;;;18.83;13.95;;;9.40;99.90;;;;;;5097095;28;20188;-86
2023/01/12 10:54:09;;;;;;;15.55;8.90;;;9.40;99.90;;;;;;5097256;28;20222;-89
2023/01/12 10:56:38;;;;;;;12.68;8.57;;;9.30;99.90;;;;;;5099288;28;20220;-89
2023/01/12 10:59:12;;;;;;;15.38;10.48;;;9.30;99.90;;;;;;5099746;28;20197;-90
2023/01/12 11:02:05;;;;;;;9.15;8.05;;;9.30;99.90;;;;;;5108620;28;20246;-85
2023/01/12 11:04:42;;;;;;;10.70;8.15;;;9.20;99.90;;;;;;5089968;28;20193;-89
2023/01/12 11:07:25;;;;;;;12.57;8.02;;;9.20;99.90;;;;;;5097951;28;20594;-85
2023/01/12 11:09:56;;;;;;;11.90;8.18;;;9.20;99.90;;;;;;5104155;28;20179;-85
2023/01/12 11:12:42;;;;;;;16.45;9.23;;;9.10;99.90;;;;;;5105574;28;20695;-91
2023/01/12 11:15:11;;;;;;;70.10;49.75;;;9.10;99.90;;;;;;5100395;28;20188;-86
2023/01/12 11:18:07;;;;;;;13.88;9.88;;;9.10;99.90;;;;;;5099477;28;20208;-86
2023/01/12 11:20:46;;;;;;;13.73;8.68;;;9.10;99.90;;;;;;5093487;28;20176;-88
2023/01/12 11:23:28;;;;;;;9.98;7.55;;;9.00;99.90;;;;;;5096244;27;20231;-85
2023/01/12 11:25:55;;;;;;;10.27;7.68;;;9.00;99.90;;;;;;5105517;28;20184;-89
2023/01/12 11:28:29;;;;;;;9.35;7.50;;;9.00;99.90;;;;;;5095542;28;20196;-88
2023/01/12 11:30:57;;;;;;;10.18;7.72;;;9.00;99.90;;;;;;5103463;28;20179;-85
2023/01/12 11:33:29;;;;;;;9.38;7.63;;;9.00;99.90;;;;;;5098560;27;20200;-89
2023/01/12 11:36:16;;;;;;;9.02;7.00;;;8.90;99.90;;;;;;5109690;27;20273;-89
2023/01/12 11:39:11;;;;;;;10.45;7.55;;;9.00;99.90;;;;;;5093940;27;20692;-85
2023/01/12 11:43:47;;;;;;;9.88;7.30;;;9.00;99.90;;;;;;5108496;28;20211;-89
2023/01/12 11:44:36;;;;;;;9.70;6.80;;;8.90;99.90;;;;;;5117964;27;20191;-86
2023/01/12 11:47:19;;;;;;;8.52;6.80;;;8.90;99.90;;;;;;5101769;28;20567;-89
2023/01/12 11:50:07;;;;;;;8.48;6.90;;;8.90;99.90;;;;;;5098705;27;20669;-89
2023/01/12 11:52:33;;;;;;;8.00;6.50;;;8.90;99.90;;;;;;5101708;27;20211;-85
2023/01/12 11:55:00;;;;;;;9.60;7.55;;;8.80;99.90;;;;;;5101086;27;20315;-84
2023/01/12 11:58:04;;;;;;;12.48;7.80;;;8.80;99.90;;;;;;5102654;28;20216;-86
2023/01/12 12:01:02;;;;;;;9.95;6.80;;;8.80;99.90;;;;;;5120145;27;20186;-89
2023/01/12 12:03:51;;;;;;;13.52;8.93;;;8.70;99.90;;;;;;5095691;28;20323;-85
2023/01/12 12:06:27;;;;;;;11.90;8.15;;;8.70;99.90;;;;;;5098398;28;20318;-86
2023/01/12 12:09:14;;;;;;;12.50;7.45;;;8.70;99.90;;;;;;5103269;28;20589;-89
2023/01/12 12:12:35;;;;;;;16.35;9.93;;;8.80;99.90;;;;;;5096066;28;20173;-85
2023/01/12 12:15:18;;;;;;;7.10;6.28;;;8.80;99.90;;;;;;5094754;28;20537;-86
2023/01/12 12:17:59;;;;;;;8.40;6.40;;;8.90;99.90;;;;;;5102315;28;20668;-88
2023/01/12 12:20:59;;;;;;;11.38;5.88;;;8.80;99.90;;;;;;5103365;28;20707;-89
2023/01/12 12:23:40;;;;;;;7.18;5.63;;;8.90;99.90;;;;;;5098712;28;20818;-85
2023/01/12 12:26:12;;;;;;;7.25;4.80;;;8.90;99.90;;;;;;5115572;27;20689;-85
2023/01/12 12:28:57;;;;;;;5.57;4.50;;;9.00;99.90;;;;;;5098879;27;20191;-86
2023/01/12 12:31:31;;;;;;;7.72;5.20;;;9.00;99.90;;;;;;5104832;27;20215;-86
2023/01/12 12:34:24;;;;;;;6.95;5.35;;;9.00;99.90;;;;;;5103428;27;20718;-86
2023/01/12 12:37:07;;;;;;;7.35;5.47;;;9.00;99.90;;;;;;5100650;27;20203;-86
2023/01/12 12:39:43;;;;;;;9.38;5.68;;;9.10;99.90;;;;;;5092342;27;20718;-89
2023/01/12 12:45:23;;;;;;;6.65;4.75;;;9.20;99.90;;;;;;5107653;27;20220;-89
2023/01/12 12:48:02;;;;;;;8.77;4.90;;;9.30;99.90;;;;;;5102614;27;20199;-85
2023/01/12 12:50:38;;;;;;;6.68;5.65;;;9.30;99.90;;;;;;5111055;27;20183;-89
2023/01/12 12:53:13;;;;;;;8.25;6.60;;;9.40;99.90;;;;;;5101810;28;20250;-85
2023/01/12 12:55:41;;;;;;;6.03;5.43;;;9.50;99.90;;;;;;5112179;28;20215;-86
2023/01/12 12:58:21;;;;;;;9.52;6.53;;;9.60;99.90;;;;;;5101036;28;20927;-86
2023/01/12 13:00:57;;;;;;;7.40;6.05;;;9.70;99.90;;;;;;5103361;28;20512;-86
2023/01/12 13:03:45;;;;;;;7.82;5.57;;;9.80;99.90;;;;;;5108670;27;20230;-89
2023/01/12 13:06:26;;;;;;;5.63;5.00;;;9.90;99.90;;;;;;5101781;28;20179;-89
2023/01/12 13:08:54;;;;;;;9.27;5.30;;;9.90;99.90;;;;;;5097138;28;20200;-85
2023/01/12 13:11:40;;;;;;;8.40;5.25;;;9.90;99.90;;;;;;5105007;28;20186;-85
2023/01/12 13:14:25;;;;;;;10.10;5.60;;;9.80;99.90;;;;;;5101781;28;20499;-85
2023/01/12 13:16:53;;;;;;;7.10;6.15;;;9.80;99.90;;;;;;5102550;28;20741;-86
2023/01/12 13:19:36;;;;;;;8.05;5.55;;;9.80;99.90;;;;;;5099133;28;20202;-87
2023/01/12 13:22:36;;;;;;;23.73;15.75;;;9.80;99.90;;;;;;5102189;28;20219;-88
2023/01/12 13:25:19;;;;;;;9.02;7.20;;;9.90;99.90;;;;;;5101664;28;20256;-90
2023/01/12 13:28:00;;;;;;;10.95;6.30;;;9.90;99.90;;;;;;5104891;28;20676;-86
2023/01/12 13:30:25;;;;;;;8.18;5.78;;;9.90;99.90;;;;;;5101236;28;20252;-85
2023/01/12 13:33:12;;;;;;;9.43;6.73;;;9.90;99.90;;;;;;5098360;28;20199;-86